^^
Saratoga-Weather Station Historical Data
Daily Summary for January 19, 2022 Units:  Metric    English   Both
Daily Weekly Monthly Yearly Custom
  High: Low: Average:
Temperature: 4.6 °C -0.7 °C 2.1 °C
Dew Point: 2.9 °C -1.5 °C 1.1 °C
Humidity: 96% 85% 94%
Wind Speed: 19.5km/h 0km/h 3.5km/h
Wind Gust: 22.5km/h - -
Wind- - SW
Pressure: 1031.8 hPa 1024.0 hPa -
Precipitation: 1.5 mm    
Historical Graphs
 
 
Tabular Data for January 19, 2022
Time Temperature Dew Point Pressure Wind Wind Speed Wind Gust Humidity Rainfall Rate (Hourly) solar
00:03 4.5 °C 2.4 °C 1031.8 hPa ENE 3.2 km/h 6.4 km/h 86% 0.0 mm 0 W/m2
00:08 4.5 °C 2.2 °C 1031.8 hPa ENE 7.9 km/h 11.3 km/h 85% 0.0 mm 0 W/m2
00:13 4.6 °C 2.3 °C 1031.8 hPa ESE 14.3 km/h 14.5 km/h 85% 0.0 mm 0 W/m2
00:18 4.6 °C 2.3 °C 1031.5 hPa ENE 6.4 km/h 9.7 km/h 85% 0.0 mm 0 W/m2
00:23 4.6 °C 2.3 °C 1031.8 hPa East 6.4 km/h 11.3 km/h 85% 0.0 mm 0 W/m2
00:28 4.5 °C 2.2 °C 1031.8 hPa SE 3.2 km/h 9.7 km/h 85% 0.0 mm 0 W/m2
00:33 4.5 °C 2.2 °C 1031.5 hPa ESE 3.2 km/h 11.3 km/h 85% 0.0 mm 0 W/m2
00:38 4.4 °C 2.1 °C 1031.5 hPa ESE 3.2 km/h 6.4 km/h 85% 0.0 mm 0 W/m2
00:43 4.4 °C 2.1 °C 1031.2 hPa ESE 6.4 km/h 16.1 km/h 85% 0.0 mm 0 W/m2
00:48 4.3 °C 2 °C 1031.5 hPa ENE 4.7 km/h 4.8 km/h 85% 0.0 mm 0 W/m2
00:53 4.3 °C 2 °C 1031.2 hPa ESE 1.4 km/h 8 km/h 85% 0.0 mm 0 W/m2
00:58 4.2 °C 1.9 °C 1031.2 hPa ESE 6.4 km/h 8 km/h 85% 0.0 mm 0 W/m2
01:03 4.2 °C 2.1 °C 1031.5 hPa ESE 1.4 km/h 9.7 km/h 86% 0.0 mm 0 W/m2
01:08 4.2 °C 2.1 °C 1031.5 hPa East 1.4 km/h 6.4 km/h 86% 0.0 mm 0 W/m2
01:13 4.1 °C 2 °C 1031.2 hPa East 4.7 km/h 11.3 km/h 86% 0.0 mm 0 W/m2
01:18 4 °C 1.9 °C 1031.2 hPa ESE 1.4 km/h 14.5 km/h 86% 0.0 mm 0 W/m2
01:23 3.9 °C 1.8 °C 1030.8 hPa ENE 4.7 km/h 9.7 km/h 86% 0.0 mm 0 W/m2
01:28 3.9 °C 1.8 °C 1030.5 hPa ENE 3.2 km/h 14.5 km/h 86% 0.0 mm 0 W/m2
01:33 3.8 °C 1.7 °C 1030.1 hPa ENE 3.2 km/h 8 km/h 86% 0.0 mm 0 W/m2
01:38 3.7 °C 1.6 °C 1030.5 hPa East 4.7 km/h 4.8 km/h 86% 0.0 mm 0 W/m2
01:43 3.6 °C 1.5 °C 1030.5 hPa ESE 1.4 km/h 6.4 km/h 86% 0.0 mm 0 W/m2
01:48 3.4 °C 1.4 °C 1030.8 hPa Calm     87% 0.0 mm 0 W/m2
01:53 3.3 °C 1.3 °C 1030.5 hPa Calm   4.8 km/h 87% 0.0 mm 0 W/m2
01:58 3.1 °C 1.1 °C 1030.5 hPa ESE 3.2 km/h 6.4 km/h 87% 0.0 mm 0 W/m2
02:03 2.9 °C 1.1 °C 1030.1 hPa ESE 3.2 km/h 9.7 km/h 88% 0.0 mm 0 W/m2
02:08 2.8 °C 1 °C 1030.5 hPa Calm   1.6 km/h 88% 0.0 mm 0 W/m2
02:13 2.7 °C 0.9 °C 1030.5 hPa Calm   9.7 km/h 88% 0.0 mm 0 W/m2
02:19 2.4 °C 0.6 °C 1030.1 hPa Calm     88% 0.0 mm 0 W/m2
02:24 2.3 °C 0.7 °C 1030.1 hPa Calm     89% 0.0 mm 0 W/m2
02:29 2.1 °C 0.5 °C 1030.1 hPa Calm     89% 0.0 mm 0 W/m2
02:34 1.9 °C 0.4 °C 1030.1 hPa Calm     90% 0.0 mm 0 W/m2
02:39 1.8 °C 0.3 °C 1030.1 hPa Calm     90% 0.0 mm 0 W/m2
02:44 1.7 °C 0.2 °C 1030.1 hPa Calm     90% 0.0 mm 0 W/m2
02:49 1.5 °C 0 °C 1030.1 hPa Calm     90% 0.0 mm 0 W/m2
02:54 1.3 °C 0 °C 1030.1 hPa ESE 1.4 km/h 3.2 km/h 91% 0.0 mm 0 W/m2
02:59 1.3 °C 0 °C 1030.1 hPa Calm     91% 0.0 mm 0 W/m2
03:04 1.2 °C -0.1 °C 1029.8 hPa Calm   3.2 km/h 91% 0.0 mm 0 W/m2
03:09 1.1 °C -0.2 °C 1029.8 hPa Calm     91% 0.0 mm 0 W/m2
03:14 1 °C -0.2 °C 1029.8 hPa Calm     92% 0.0 mm 0 W/m2
03:19 0.9 °C -0.3 °C 1029.5 hPa Calm     92% 0.0 mm 0 W/m2
03:24 0.8 °C -0.4 °C 1029.5 hPa Calm     92% 0.0 mm 0 W/m2
03:29 0.7 °C -0.5 °C 1029.5 hPa Calm     92% 0.0 mm 0 W/m2
03:34 0.6 °C -0.5 °C 1029.5 hPa Calm     92% 0.0 mm 0 W/m2
03:39 0.4 °C -0.7 °C 1029.1 hPa Calm     92% 0.0 mm 0 W/m2
03:44 0.3 °C -0.8 °C 1029.1 hPa Calm     92% 0.0 mm 0 W/m2
03:49 0.2 °C -0.9 °C 1028.8 hPa Calm     92% 0.0 mm 0 W/m2
03:54 0 °C -1.1 °C 1029.1 hPa Calm     92% 0.0 mm 0 W/m2
03:59 -0.1 °C -1.1 °C 1028.8 hPa Calm     93% 0.0 mm 0 W/m2
04:04 -0.2 °C -1.2 °C 1028.8 hPa Calm     93% 0.0 mm 0 W/m2
04:09 -0.2 °C -1.2 °C 1028.8 hPa Calm     93% 0.0 mm 0 W/m2
04:14 -0.2 °C -1.2 °C 1028.8 hPa Calm     93% 0.0 mm 0 W/m2
04:19 -0.2 °C -1.2 °C 1028.8 hPa Calm     93% 0.0 mm 0 W/m2
04:24 -0.3 °C -1.3 °C 1028.8 hPa Calm     93% 0.0 mm 0 W/m2
04:29 -0.3 °C -1.1 °C 1028.8 hPa Calm     94% 0.0 mm 0 W/m2
04:34 -0.3 °C -1.1 °C 1028.8 hPa Calm     94% 0.0 mm 0 W/m2
04:39 -0.3 °C -1.1 °C 1028.8 hPa Calm     94% 0.0 mm 0 W/m2
04:44 -0.4 °C -1.2 °C 1028.8 hPa Calm     94% 0.0 mm 0 W/m2
04:49 -0.4 °C -1.2 °C 1028.5 hPa Calm     94% 0.0 mm 0 W/m2
04:54 -0.4 °C -1.2 °C 1028.5 hPa Calm     94% 0.0 mm 0 W/m2
04:59 -0.4 °C -1.2 °C 1028.5 hPa Calm     94% 0.0 mm 0 W/m2
05:04 -0.5 °C -1.3 °C 1028.5 hPa Calm     94% 0.0 mm 0 W/m2
05:09 -0.6 °C -1.4 °C 1028.5 hPa Calm     94% 0.0 mm 0 W/m2
05:14 -0.6 °C -1.4 °C 1028.5 hPa Calm     94% 0.0 mm 0 W/m2
05:19 -0.6 °C -1.4 °C 1028.1 hPa Calm     94% 0.0 mm 0 W/m2
05:24 -0.6 °C -1.4 °C 1028.1 hPa Calm     94% 0.0 mm 0 W/m2
05:29 -0.7 °C -1.5 °C 1028.1 hPa Calm     94% 0.0 mm 0 W/m2
05:34 -0.7 °C -1.4 °C 1028.1 hPa Calm     95% 0.0 mm 0 W/m2
05:39 -0.7 °C -1.4 °C 1028.1 hPa Calm     95% 0.0 mm 0 W/m2
05:44 -0.7 °C -1.5 °C 1028.1 hPa Calm     94% 0.0 mm 0 W/m2
05:49 -0.7 °C -1.4 °C 1028.1 hPa Calm     95% 0.0 mm 0 W/m2
05:54 -0.7 °C -1.4 °C 1028.1 hPa Calm     95% 0.0 mm 0 W/m2
05:59 -0.7 °C -1.4 °C 1028.1 hPa Calm     95% 0.0 mm 0 W/m2
06:04 -0.6 °C -1.3 °C 1027.8 hPa ESE 1.6 km/h 1.6 km/h 95% 0.0 mm 0 W/m2
06:09 -0.5 °C -1.2 °C 1027.8 hPa Calm     95% 0.0 mm 0 W/m2
06:14 -0.4 °C -1.1 °C 1028.1 hPa Calm     95% 0.0 mm 0 W/m2
06:19 -0.4 °C -1.1 °C 1028.1 hPa Calm     95% 0.0 mm 0 W/m2
06:24 -0.3 °C -1 °C 1027.8 hPa Calm     95% 0.0 mm 0 W/m2
06:29 -0.3 °C -1 °C 1027.8 hPa Calm     95% 0.0 mm 0 W/m2
06:34 -0.3 °C -1 °C 1027.8 hPa Calm   1.6 km/h 95% 0.0 mm 0 W/m2
06:39 -0.2 °C -0.9 °C 1027.8 hPa Calm     95% 0.0 mm 0 W/m2
06:44 -0.2 °C -0.9 °C 1027.8 hPa Calm     95% 0.0 mm 0 W/m2
06:49 -0.1 °C -0.8 °C 1027.8 hPa Calm     95% 0.0 mm 0 W/m2
06:54 -0.1 °C -0.8 °C 1027.8 hPa ESE 1.4 km/h 3.2 km/h 95% 0.0 mm 0 W/m2
06:59 -0.1 °C -0.8 °C 1027.8 hPa ESE 1.4 km/h 1.6 km/h 95% 0.0 mm 0 W/m2
07:04 -0.1 °C -0.8 °C 1027.8 hPa ESE 3.2 km/h 3.2 km/h 95% 0.0 mm 0 W/m2
07:09 -0.1 °C -0.8 °C 1027.8 hPa Calm     95% 0.0 mm 0 W/m2
07:14 -0.1 °C -0.8 °C 1027.8 hPa Calm     95% 0.0 mm 0 W/m2
07:19 0 °C -0.7 °C 1027.8 hPa Calm     95% 0.0 mm 0 W/m2
07:24 0.1 °C -0.6 °C 1027.4 hPa Calm     95% 0.0 mm 0 W/m2
07:29 0.2 °C -0.5 °C 1027.4 hPa Calm     95% 0.0 mm 0 W/m2
07:34 0.3 °C -0.3 °C 1027.8 hPa Calm   3.2 km/h 96% 0.0 mm 0 W/m2
07:39 0.4 °C -0.2 °C 1027.8 hPa Calm   3.2 km/h 96% 0.0 mm 0 W/m2
07:44 0.6 °C 0 °C 1027.4 hPa Calm   3.2 km/h 96% 0.0 mm 0 W/m2
07:49 0.6 °C 0 °C 1027.4 hPa Calm   3.2 km/h 96% 0.0 mm 0 W/m2
07:54 0.7 °C 0 °C 1027.4 hPa Calm   1.6 km/h 95% 0.0 mm 0 W/m2
07:59 0.7 °C 0 °C 1027.4 hPa Calm   6.4 km/h 95% 0.0 mm 0 W/m2
08:04 0.8 °C 0.1 °C 1027.4 hPa Calm   3.2 km/h 95% 0.0 mm 0 W/m2
08:09 0.9 °C 0.2 °C 1027.4 hPa Calm   6.4 km/h 95% 0.0 mm 0 W/m2
08:14 0.9 °C 0.2 °C 1027.4 hPa East 3.2 km/h 4.8 km/h 95% 0.0 mm 0 W/m2
08:19 1 °C 0.1 °C 1027.4 hPa Calm   1.6 km/h 94% 0.0 mm 0 W/m2
08:24 1.1 °C 0.2 °C 1027.4 hPa Calm     94% 0.0 mm 0 W/m2
08:29 1.1 °C 0.2 °C 1027.1 hPa NE 3.2 km/h 3.2 km/h 94% 0.0 mm 0 W/m2
08:34 1.2 °C 0.3 °C 1027.1 hPa NE 3.2 km/h 3.2 km/h 94% 0.0 mm 0 W/m2
08:39 1.2 °C 0.2 °C 1027.1 hPa Calm   3.2 km/h 93% 0.0 mm 0 W/m2
08:44 1.2 °C 0.2 °C 1027.1 hPa East 3.2 km/h 4.8 km/h 93% 0.0 mm 0 W/m2
08:49 1.2 °C 0.2 °C 1027.1 hPa ESE 3.2 km/h 6.4 km/h 93% 0.0 mm 0 W/m2
08:54 1.1 °C 0.1 °C 1027.1 hPa ESE 3.2 km/h 6.4 km/h 93% 0.0 mm 0 W/m2
08:59 1 °C 0 °C 1027.1 hPa Calm   1.6 km/h 93% 0.0 mm 5 W/m2
09:04 0.9 °C -0.1 °C 1027.1 hPa ESE 1.4 km/h 3.2 km/h 93% 0.0 mm 5 W/m2
09:09 0.8 °C -0.2 °C 1027.1 hPa ESE 1.4 km/h 4.8 km/h 93% 0.0 mm 5 W/m2
09:14 0.7 °C -0.3 °C 1027.1 hPa ESE 4.7 km/h 4.8 km/h 93% 0.0 mm 5 W/m2
09:19 0.7 °C -0.2 °C 1027.1 hPa East 1.4 km/h 3.2 km/h 94% 0.0 mm 5 W/m2
09:24 0.7 °C -0.2 °C 1027.1 hPa East 3.2 km/h 6.4 km/h 94% 0.0 mm 7 W/m2
09:29 0.6 °C -0.3 °C 1027.1 hPa ESE 3.2 km/h 6.4 km/h 94% 0.0 mm 7 W/m2
09:34 0.6 °C -0.3 °C 1026.8 hPa East 1.4 km/h 3.2 km/h 94% 0.0 mm 7 W/m2
09:39 0.6 °C -0.3 °C 1027.1 hPa ESE 4.7 km/h 6.4 km/h 94% 0.0 mm 7 W/m2
09:44 0.6 °C -0.3 °C 1027.1 hPa East 3.2 km/h 6.4 km/h 94% 0.0 mm 9 W/m2
09:50 0.6 °C -0.3 °C 1027.1 hPa Calm   3.2 km/h 94% 0.0 mm 9 W/m2
09:55 0.6 °C -0.3 °C 1027.1 hPa East 1.4 km/h 4.8 km/h 94% 0.0 mm 11 W/m2
10:00 0.6 °C -0.1 °C 1027.1 hPa ENE 3.2 km/h 4.8 km/h 95% 0.0 mm 9 W/m2
10:05 0.6 °C -0.1 °C 1027.1 hPa ENE 3.2 km/h 4.8 km/h 95% 0.0 mm 9 W/m2
10:10 0.7 °C 0 °C 1027.1 hPa ENE 3.2 km/h 6.4 km/h 95% 0.0 mm 11 W/m2
10:15 0.8 °C 0.1 °C 1026.8 hPa ESE 4.7 km/h 4.8 km/h 95% 0.0 mm 12 W/m2
10:20 0.8 °C 0.1 °C 1026.8 hPa Calm     95% 0.0 mm 12 W/m2
10:25 1 °C 0.3 °C 1026.8 hPa Calm   4.8 km/h 95% 0.0 mm 12 W/m2
10:30 1.2 °C 0.5 °C 1026.8 hPa Calm   3.2 km/h 95% 0.0 mm 18 W/m2
10:35 1.3 °C 0.6 °C 1026.8 hPa West 1.4 km/h 9.7 km/h 95% 0.0 mm 14 W/m2
10:40 1.3 °C 0.6 °C 1026.8 hPa Calm   4.8 km/h 95% 0.0 mm 16 W/m2
10:45 1.4 °C 0.7 °C 1026.8 hPa NNW 1.4 km/h 9.7 km/h 95% 0.0 mm 19 W/m2
10:50 1.4 °C 0.7 °C 1026.8 hPa Calm   3.2 km/h 95% 0.0 mm 21 W/m2
10:55 1.5 °C 0.8 °C 1026.8 hPa Calm   9.7 km/h 95% 0.0 mm 18 W/m2
11:00 1.6 °C 0.9 °C 1027.1 hPa SE 3.2 km/h 4.8 km/h 95% 0.0 mm 16 W/m2
11:05 1.6 °C 0.9 °C 1027.1 hPa Calm   11.3 km/h 95% 0.0 mm 19 W/m2
11:10 1.6 °C 0.9 °C 1027.1 hPa Calm   6.4 km/h 95% 0.0 mm 19 W/m2
11:15 1.6 °C 0.9 °C 1027.1 hPa WSW 3.2 km/h 4.8 km/h 95% 0.0 mm 21 W/m2
11:20 1.6 °C 0.9 °C 1027.1 hPa Calm     95% 0.0 mm 19 W/m2
11:25 1.6 °C 0.9 °C 1027.1 hPa WNW 3.2 km/h 8 km/h 95% 0.0 mm 19 W/m2
11:30 1.6 °C 0.9 °C 1027.1 hPa Calm   3.2 km/h 95% 0.0 mm 16 W/m2
11:35 1.6 °C 0.9 °C 1027.1 hPa Calm   8 km/h 95% 0.0 mm 16 W/m2
11:40 1.7 °C 1 °C 1026.8 hPa WNW 1.4 km/h 1.6 km/h 95% 0.0 mm 14 W/m2
11:45 1.7 °C 1 °C 1026.8 hPa Calm     95% 0.0 mm 18 W/m2
11:50 1.7 °C 1 °C 1026.8 hPa Calm   3.2 km/h 95% 0.0 mm 25 W/m2
11:55 1.7 °C 1 °C 1026.8 hPa West 4.7 km/h 4.8 km/h 95% 0.0 mm 26 W/m2
12:00 1.7 °C 1 °C 1026.8 hPa Calm   4.8 km/h 95% 0.0 mm 26 W/m2
12:05 1.7 °C 1 °C 1026.8 hPa Calm   4.8 km/h 95% 0.0 mm 26 W/m2
12:10 1.8 °C 1.1 °C 1026.4 hPa ESE 4.7 km/h 8 km/h 95% 0.0 mm 25 W/m2
12:15 1.8 °C 1.1 °C 1026.4 hPa East 3.2 km/h 4.8 km/h 95% 0.0 mm 21 W/m2
12:20 1.8 °C 1.1 °C 1026.4 hPa NW 7.9 km/h 14.5 km/h 95% 0.0 mm 21 W/m2
12:25 1.8 °C 1.1 °C 1026.4 hPa WNW 3.2 km/h 6.4 km/h 95% 0.0 mm 23 W/m2
12:30 1.8 °C 1.1 °C 1026.4 hPa Calm   3.2 km/h 95% 0.0 mm 26 W/m2
12:35 1.9 °C 1.2 °C 1026.1 hPa ESE 4.7 km/h 4.8 km/h 95% 0.0 mm 21 W/m2
12:40 1.9 °C 1.2 °C 1026.1 hPa SSE 3.2 km/h 4.8 km/h 95% 0.0 mm 21 W/m2
12:45 1.9 °C 1.2 °C 1026.1 hPa Calm   3.2 km/h 95% 0.0 mm 21 W/m2
12:50 2 °C 1.3 °C 1025.7 hPa Calm   1.6 km/h 95% 0.0 mm 21 W/m2
12:55 2 °C 1.4 °C 1025.7 hPa WNW 1.4 km/h 6.4 km/h 96% 0.0 mm 23 W/m2
13:01 2 °C 1.3 °C 1025.7 hPa WNW 6.4 km/h 6.4 km/h 95% 0.0 mm 21 W/m2
13:06 2.1 °C 1.4 °C 1025.7 hPa NE 4.7 km/h 4.8 km/h 95% 0.0 mm 21 W/m2
13:11 2.1 °C 1.4 °C 1025.7 hPa NE 3.2 km/h 4.8 km/h 95% 0.0 mm 19 W/m2
13:16 2.2 °C 1.5 °C 1025.7 hPa NW 3.2 km/h 9.7 km/h 95% 0.0 mm 23 W/m2
13:21 2.2 °C 1.6 °C 1025.7 hPa NNW 3.2 km/h 4.8 km/h 96% 0.0 mm 26 W/m2
13:26 2.2 °C 1.6 °C 1025.4 hPa Calm   6.4 km/h 96% 0.0 mm 28 W/m2
13:31 2.3 °C 1.7 °C 1025.4 hPa WNW 3.2 km/h 4.8 km/h 96% 0.0 mm 32 W/m2
13:36 2.3 °C 1.7 °C 1025.4 hPa Calm   4.8 km/h 96% 0.2 mm 26 W/m2
13:41 2.3 °C 1.7 °C 1025.4 hPa Calm   3.2 km/h 96% 0.2 mm 14 W/m2
13:46 2.3 °C 1.6 °C 1025.4 hPa NW 1.4 km/h 4.8 km/h 95% 0.2 mm 11 W/m2
13:51 2.4 °C 1.7 °C 1025.1 hPa SSW 3.2 km/h 6.4 km/h 95% 0.2 mm 19 W/m2
13:56 2.4 °C 1.7 °C 1025.1 hPa WNW 1.4 km/h 6.4 km/h 95% 0.2 mm 18 W/m2
14:01 2.4 °C 1.8 °C 1025.1 hPa Calm   4.8 km/h 96% 0.2 mm 23 W/m2
14:06 2.5 °C 1.9 °C 1025.1 hPa WNW 1.4 km/h 3.2 km/h 96% 0.2 mm 12 W/m2
14:11 2.5 °C 1.9 °C 1025.1 hPa NW 4.7 km/h 6.4 km/h 96% 0.2 mm 11 W/m2
14:16 2.5 °C 1.9 °C 1025.1 hPa WNW 1.4 km/h 4.8 km/h 96% 0.2 mm 11 W/m2
14:21 2.5 °C 1.9 °C 1025.1 hPa WNW 3.2 km/h 6.4 km/h 96% 0.2 mm 11 W/m2
14:26 2.6 °C 2 °C 1024.7 hPa WNW 6.4 km/h 6.4 km/h 96% 0.2 mm 12 W/m2
14:31 2.6 °C 1.9 °C 1025.1 hPa Calm   1.6 km/h 95% 0.2 mm 12 W/m2
14:36 2.6 °C 1.9 °C 1025.1 hPa WNW 7.9 km/h 8 km/h 95% 0.2 mm 11 W/m2
14:41 2.6 °C 1.9 °C 1025.1 hPa WNW 4.7 km/h 6.4 km/h 95% 0.2 mm 14 W/m2
14:46 2.6 °C 1.9 °C 1025.1 hPa ENE 6.4 km/h 6.4 km/h 95% 0.2 mm 21 W/m2
14:51 2.7 °C 2 °C 1025.1 hPa WNW 11.1 km/h 11.3 km/h 95% 0.2 mm 19 W/m2
14:56 2.7 °C 2 °C 1025.1 hPa Calm   4.8 km/h 95% 0.2 mm 16 W/m2
15:01 2.7 °C 2 °C 1025.1 hPa West 4.7 km/h 9.7 km/h 95% 0.2 mm 21 W/m2
15:06 2.7 °C 2 °C 1025.1 hPa NW 6.4 km/h 11.3 km/h 95% 0.2 mm 23 W/m2
15:11 2.7 °C 2 °C 1025.1 hPa NNW 9.7 km/h 9.7 km/h 95% 0.2 mm 16 W/m2
15:16 2.7 °C 2 °C 1025.1 hPa WNW 1.4 km/h 11.3 km/h 95% 0.2 mm 19 W/m2
15:21 2.7 °C 2 °C 1025.1 hPa WNW 6.4 km/h 12.9 km/h 95% 0.2 mm 16 W/m2
15:26 2.7 °C 2 °C 1025.1 hPa NNW 9.7 km/h 11.3 km/h 95% 0.2 mm 18 W/m2
15:31 2.7 °C 2 °C 1025.1 hPa WNW 6.4 km/h 17.7 km/h 95% 0.2 mm 19 W/m2
15:36 2.7 °C 2 °C 1025.1 hPa WNW 4.7 km/h 14.5 km/h 95% 0.0 mm 12 W/m2
15:41 2.7 °C 2 °C 1025.1 hPa WNW 4.7 km/h 17.7 km/h 95% 0.0 mm 16 W/m2
15:46 2.7 °C 2 °C 1025.1 hPa WSW 4.7 km/h 6.4 km/h 95% 0.0 mm 11 W/m2
15:51 2.7 °C 1.8 °C 1025.1 hPa WSW 7.9 km/h 11.3 km/h 94% 0.0 mm 11 W/m2
15:56 2.6 °C 1.7 °C 1024.7 hPa WNW 3.2 km/h 8 km/h 94% 0.0 mm 18 W/m2
16:01 2.6 °C 1.9 °C 1024.7 hPa West 1.4 km/h 3.2 km/h 95% 0.0 mm 12 W/m2
16:06 2.6 °C 1.9 °C 1024.7 hPa WNW 1.4 km/h 9.7 km/h 95% 0.0 mm 11 W/m2
16:11 2.6 °C 1.9 °C 1024.7 hPa WNW 3.2 km/h 6.4 km/h 95% 0.2 mm 11 W/m2
16:16 2.6 °C 1.9 °C 1024.7 hPa WSW 7.9 km/h 11.3 km/h 95% 0.2 mm 16 W/m2
16:21 2.6 °C 1.9 °C 1024.7 hPa WSW 6.4 km/h 12.9 km/h 95% 0.2 mm 19 W/m2
16:26 2.6 °C 1.9 °C 1024.7 hPa NW 6.4 km/h 11.3 km/h 95% 0.2 mm 19 W/m2
16:31 2.6 °C 1.7 °C 1024.7 hPa WNW 3.2 km/h 12.9 km/h 94% 0.2 mm 14 W/m2
16:36 2.6 °C 1.7 °C 1024.7 hPa WNW 3.2 km/h 4.8 km/h 94% 0.2 mm 16 W/m2
16:41 2.6 °C 1.7 °C 1024.7 hPa WNW 3.2 km/h 6.4 km/h 94% 0.2 mm 12 W/m2
16:46 2.6 °C 1.7 °C 1024.4 hPa West 13 km/h 12.9 km/h 94% 0.2 mm 11 W/m2
16:51 2.7 °C 1.8 °C 1024.7 hPa West 4.7 km/h 6.4 km/h 94% 0.2 mm 9 W/m2
16:56 2.7 °C 1.8 °C 1024.7 hPa WNW 4.7 km/h 8 km/h 94% 0.2 mm 5 W/m2
17:01 2.7 °C 1.8 °C 1024.7 hPa West 3.2 km/h 9.7 km/h 94% 0.2 mm 0 W/m2
17:06 2.7 °C 1.8 °C 1024.7 hPa Calm   11.3 km/h 94% 0.2 mm 0 W/m2
17:11 2.7 °C 1.8 °C 1024.4 hPa Calm   4.8 km/h 94% 0.0 mm 0 W/m2
17:16 2.7 °C 1.8 °C 1024.7 hPa NW 4.7 km/h 4.8 km/h 94% 0.0 mm 0 W/m2
17:21 2.7 °C 1.8 °C 1024.7 hPa NW 4.7 km/h 4.8 km/h 94% 0.0 mm 0 W/m2
17:26 2.7 °C 1.8 °C 1024.7 hPa Calm   4.8 km/h 94% 0.0 mm 0 W/m2
17:31 2.7 °C 1.8 °C 1024.7 hPa Calm   1.6 km/h 94% 0.0 mm 0 W/m2
17:36 2.7 °C 1.8 °C 1024.7 hPa NW 4.7 km/h 4.8 km/h 94% 0.0 mm 0 W/m2
17:41 2.7 °C 1.8 °C 1024.7 hPa Calm   6.4 km/h 94% 0.0 mm 0 W/m2
17:46 2.7 °C 1.8 °C 1024.7 hPa WSW 1.4 km/h 4.8 km/h 94% 0.2 mm 0 W/m2
17:51 2.7 °C 1.8 °C 1024.7 hPa West 3.2 km/h 6.4 km/h 94% 0.2 mm 0 W/m2
17:56 2.7 °C 1.8 °C 1024.7 hPa Calm   1.6 km/h 94% 0.2 mm 0 W/m2
18:01 2.7 °C 1.8 °C 1024.4 hPa NW 3.2 km/h 3.2 km/h 94% 0.2 mm 0 W/m2
18:06 2.8 °C 1.9 °C 1024.7 hPa NW 7.9 km/h 8 km/h 94% 0.2 mm 0 W/m2
18:11 2.8 °C 1.9 °C 1024.4 hPa NW 3.2 km/h 8 km/h 94% 0.2 mm 0 W/m2
18:16 2.8 °C 1.9 °C 1024.7 hPa WNW 4.7 km/h 6.4 km/h 94% 0.2 mm 0 W/m2
18:21 2.9 °C 2 °C 1024.4 hPa WNW 4.7 km/h 4.8 km/h 94% 0.2 mm 0 W/m2
18:26 2.9 °C 2 °C 1024.4 hPa NW 6.4 km/h 6.4 km/h 94% 0.2 mm 0 W/m2
18:31 3 °C 2.1 °C 1024.4 hPa West 8 km/h 8 km/h 94% 0.2 mm 0 W/m2
18:37 3 °C 2.1 °C 1024.4 hPa WNW 4.7 km/h 6.4 km/h 94% 0.2 mm 0 W/m2
18:42 3 °C 2.1 °C 1024.7 hPa West 3.2 km/h 6.4 km/h 94% 0.2 mm 0 W/m2
18:47 3.1 °C 2.2 °C 1024.7 hPa West 9.7 km/h 16.1 km/h 94% 0.0 mm 0 W/m2
18:52 3.1 °C 2.2 °C 1024.4 hPa West 4.7 km/h 17.7 km/h 94% 0.0 mm 0 W/m2
18:57 3.1 °C 2.2 °C 1024.7 hPa WNW 3.2 km/h 9.7 km/h 94% 0.0 mm 0 W/m2
19:02 3.1 °C 2.2 °C 1024.4 hPa North 4.7 km/h 12.9 km/h 94% 0.0 mm 0 W/m2
19:07 3.2 °C 2.3 °C 1024.4 hPa West 4.7 km/h 11.3 km/h 94% 0.0 mm 0 W/m2
19:12 3.2 °C 2.5 °C 1024.4 hPa North 4.7 km/h 20.9 km/h 95% 0.0 mm 0 W/m2
19:17 3.2 °C 2.5 °C 1024.4 hPa NW 11.1 km/h 16.1 km/h 95% 0.0 mm 0 W/m2
19:22 3.2 °C 2.5 °C 1024.4 hPa WNW 7.9 km/h 19.3 km/h 95% 0.0 mm 0 W/m2
19:27 3.2 °C 2.3 °C 1024.4 hPa WNW 6.4 km/h 12.9 km/h 94% 0.0 mm 0 W/m2
19:32 3.2 °C 2.3 °C 1024.4 hPa West 4.7 km/h 12.9 km/h 94% 0.2 mm 0 W/m2
19:37 3.3 °C 2.4 °C 1024.4 hPa WSW 14.3 km/h 17.7 km/h 94% 0.2 mm 0 W/m2
19:42 3.3 °C 2.4 °C 1024.4 hPa WNW 7.9 km/h 16.1 km/h 94% 0.2 mm 0 W/m2
19:47 3.3 °C 2.4 °C 1024.4 hPa WNW 4.7 km/h 22.5 km/h 94% 0.2 mm 0 W/m2
19:52 3.4 °C 2.5 °C 1024.4 hPa WSW 7.9 km/h 17.7 km/h 94% 0.2 mm 0 W/m2
19:57 3.4 °C 2.5 °C 1024.4 hPa West 6.4 km/h 19.3 km/h 94% 0.2 mm 0 W/m2
20:02 3.4 °C 2.5 °C 1024.4 hPa NW 13 km/h 14.5 km/h 94% 0.2 mm 0 W/m2
20:07 3.4 °C 2.5 °C 1024.4 hPa WNW 11.1 km/h 14.5 km/h 94% 0.2 mm 0 W/m2
20:12 3.4 °C 2.5 °C 1024.4 hPa West 11.1 km/h 17.7 km/h 94% 0.2 mm 0 W/m2
20:17 3.5 °C 2.6 °C 1024.0 hPa West 6.4 km/h 17.7 km/h 94% 0.2 mm 0 W/m2
20:22 3.5 °C 2.6 °C 1024.0 hPa WSW 7.9 km/h 19.3 km/h 94% 0.2 mm 0 W/m2
20:27 3.5 °C 2.6 °C 1024.0 hPa West 4.7 km/h 12.9 km/h 94% 0.2 mm 0 W/m2
20:32 3.5 °C 2.6 °C 1024.0 hPa West 1.4 km/h 19.3 km/h 94% 0.0 mm 0 W/m2
20:37 3.5 °C 2.6 °C 1024.4 hPa WNW 7.9 km/h 14.5 km/h 94% 0.0 mm 0 W/m2
20:42 3.6 °C 2.7 °C 1024.4 hPa West 9.7 km/h 19.3 km/h 94% 0.0 mm 0 W/m2
20:47 3.6 °C 2.7 °C 1024.4 hPa WSW 11.1 km/h 16.1 km/h 94% 0.0 mm 0 W/m2
20:52 3.6 °C 2.7 °C 1024.4 hPa WNW 13 km/h 19.3 km/h 94% 0.0 mm 0 W/m2
20:57 3.6 °C 2.7 °C 1024.4 hPa West 4.7 km/h 12.9 km/h 94% 0.0 mm 0 W/m2
21:02 3.6 °C 2.7 °C 1024.4 hPa WNW 11.1 km/h 19.3 km/h 94% 0.0 mm 0 W/m2
21:07 3.6 °C 2.9 °C 1024.4 hPa WNW 4.7 km/h 14.5 km/h 95% 0.0 mm 0 W/m2
21:12 3.6 °C 2.9 °C 1024.0 hPa WNW 6.4 km/h 12.9 km/h 95% 0.0 mm 0 W/m2
21:17 3.6 °C 2.9 °C 1024.0 hPa WNW 7.9 km/h 20.9 km/h 95% 0.0 mm 0 W/m2
21:22 3.6 °C 2.9 °C 1024.0 hPa WNW 13 km/h 12.9 km/h 95% 0.0 mm 0 W/m2
21:27 3.6 °C 2.9 °C 1024.0 hPa WNW 6.4 km/h 20.9 km/h 95% 0.2 mm 0 W/m2
21:32 3.6 °C 2.9 °C 1024.4 hPa WSW 4.7 km/h 9.7 km/h 95% 0.2 mm 0 W/m2
21:37 3.6 °C 2.9 °C 1024.4 hPa WNW 4.7 km/h 16.1 km/h 95% 0.2 mm 0 W/m2
21:42 3.5 °C 2.8 °C 1024.4 hPa WNW 9.7 km/h 14.5 km/h 95% 0.2 mm 0 W/m2
21:47 3.5 °C 2.8 °C 1024.4 hPa NNW 6.4 km/h 9.7 km/h 95% 0.2 mm 0 W/m2
21:52 3.5 °C 2.8 °C 1024.4 hPa West 4.7 km/h 16.1 km/h 95% 0.2 mm 0 W/m2
21:57 3.5 °C 2.8 °C 1024.4 hPa WNW 4.7 km/h 11.3 km/h 95% 0.5 mm 0 W/m2
22:02 3.5 °C 2.8 °C 1024.4 hPa West 1.4 km/h 8 km/h 95% 0.5 mm 0 W/m2
22:07 3.5 °C 2.8 °C 1024.4 hPa NNE 7.9 km/h 14.5 km/h 95% 0.5 mm 0 W/m2
22:12 3.5 °C 2.8 °C 1024.0 hPa NW 14.3 km/h 20.9 km/h 95% 0.5 mm 0 W/m2
22:17 3.5 °C 2.8 °C 1024.4 hPa West 13 km/h 17.7 km/h 95% 0.5 mm 0 W/m2
22:22 3.5 °C 2.8 °C 1024.4 hPa West 9.7 km/h 9.7 km/h 95% 0.5 mm 0 W/m2
22:27 3.5 °C 2.8 °C 1024.4 hPa NW 4.7 km/h 17.7 km/h 95% 0.5 mm 0 W/m2
22:32 3.6 °C 2.9 °C 1024.4 hPa West 6.4 km/h 16.1 km/h 95% 0.5 mm 0 W/m2
22:37 3.6 °C 2.9 °C 1024.4 hPa WSW 13 km/h 19.3 km/h 95% 0.5 mm 0 W/m2
22:42 3.6 °C 2.9 °C 1024.4 hPa WSW 6.4 km/h 12.9 km/h 95% 0.5 mm 0 W/m2
22:47 3.6 °C 2.9 °C 1024.4 hPa NW 7.9 km/h 17.7 km/h 95% 0.5 mm 0 W/m2
22:52 3.5 °C 2.8 °C 1024.4 hPa NW 6.4 km/h 14.5 km/h 95% 0.5 mm 0 W/m2
22:57 3.6 °C 2.9 °C 1024.7 hPa West 4.7 km/h 11.3 km/h 95% 0.2 mm 0 W/m2
23:02 3.5 °C 2.8 °C 1024.7 hPa NW 19.5 km/h 22.5 km/h 95% 0.2 mm 0 W/m2
23:07 3.6 °C 2.9 °C 1024.4 hPa West 14.3 km/h 16.1 km/h 95% 0.2 mm 0 W/m2
23:12 3.6 °C 2.9 °C 1024.7 hPa NW 6.4 km/h 22.5 km/h 95% 0.2 mm 0 W/m2
23:17 3.6 °C 2.9 °C 1024.4 hPa NW 7.9 km/h 11.3 km/h 95% 0.2 mm 0 W/m2
23:22 3.6 °C 2.9 °C 1024.7 hPa West 17.7 km/h 22.5 km/h 95% 0.0 mm 0 W/m2
23:27 3.6 °C 2.9 °C 1024.4 hPa WNW 13 km/h 20.9 km/h 95% 0.0 mm 0 W/m2
23:32 3.6 °C 2.9 °C 1024.4 hPa NW 7.9 km/h 14.5 km/h 95% 0.0 mm 0 W/m2
23:37 3.6 °C 2.9 °C 1024.7 hPa WSW 6.4 km/h 16.1 km/h 95% 0.0 mm 0 W/m2
23:42 3.6 °C 2.9 °C 1024.7 hPa West 9.7 km/h 17.7 km/h 95% 0.0 mm 0 W/m2
23:47 3.6 °C 2.9 °C 1024.7 hPa WNW 6.4 km/h 12.9 km/h 95% 0.0 mm 0 W/m2
23:52 3.6 °C 2.9 °C 1024.7 hPa WNW 6.4 km/h 14.5 km/h 95% 0.0 mm 0 W/m2
23:57 3.5 °C 2.8 °C 1024.7 hPa West 16.3 km/h 19.3 km/h 95% 0.0 mm 0 W/m2
Juneau County Weather
Compliments of Weather Underground - 4 mb